CST,Max TemperatureF,Mean TemperatureF,Min TemperatureF,Max Dew PointF,MeanDew PointF,Min DewpointF,Max Humidity, Mean Humidity, Min Humidity, Max Sea Level PressureIn, Mean Sea Level PressureIn, Min Sea Level PressureIn, Max VisibilityMiles, Mean VisibilityMiles, Min VisibilityMiles, Max Wind SpeedMPH, Mean Wind SpeedMPH, Max Gust SpeedMPH,PrecipitationIn, CloudCover, Events, WindDirDegrees
2012-1-1,37,31,24,33,20,15,85,66,47,30.43,30.19,29.78,10,10,10,38,25,53,0.00,5,,312
2012-1-2,26,18,10,15,8,5,76,59,42,30.57,30.51,30.41,10,10,10,31,18,40,0.00,0,,317
2012-1-3,37,22,7,18,12,4,91,64,37,30.53,30.20,29.97,10,10,10,23,8,29,0.00,0,,183
2012-1-4,45,34,23,27,26,23,85,67,49,30.20,30.10,29.96,10,10,10,24,12,30,0.00,0,,282
2012-1-5,63,45,27,32,28,23,85,56,27,30.02,29.87,29.70,10,10,10,17,6,23,0.00,0,,229
2012-1-6,50,39,27,31,27,22,92,67,42,29.98,29.84,29.68,10,10,10,21,10,25,0.00,1,,319
2012-1-7,42,32,21,26,24,19,92,72,51,30.29,30.17,29.99,10,10,10,17,6,22,0.00,0,,320
2012-1-8,41,30,18,30,23,17,92,78,64,30.37,30.31,30.27,10,9,7,9,2,10,0.00,1,,203
2012-1-9,52,37,22,29,25,21,88,62,35,30.24,30.10,30.02,10,10,10,21,11,26,0.00,0,,237
2012-1-10,56,39,22,31,26,20,92,65,38,30.02,29.90,29.70,10,10,10,14,4,16,0.00,0,,204
2012-1-11,40,28,16,34,19,6,92,77,61,29.88,29.76,29.62,10,8,1,38,17,47,T,6,Snow,334
2012-1-12,15,14,12,7,5,3,76,70,64,29.90,29.84,29.79,10,8,2,32,23,43,T,8,Snow,320
2012-1-13,20,14,8,8,5,3,83,67,51,30.09,30.03,29.91,10,8,2,21,9,28,T,5,Snow,286
2012-1-14,33,22,11,27,18,10,96,85,73,30.20,30.08,29.97,10,7,2,13,3,16,T,6,Snow,227
2012-1-15,50,31,12,29,23,10,100,71,42,30.19,29.93,29.77,10,9,6,23,9,31,0.00,0,,150
2012-1-16,43,34,25,30,25,18,85,73,60,29.84,29.75,29.70,10,10,8,20,11,24,0.00,3,,353
2012-1-17,25,12,-1,17,9,-5,87,68,49,30.38,30.11,29.83,10,4,0,31,17,38,T,6,Fog-Snow,323
2012-1-18,28,12,-4,19,8,-6,95,76,57,30.36,30.05,29.86,10,10,9,29,10,35,0.00,3,,191
2012-1-19,11,6,0,-1,-8,-11,75,60,45,30.23,30.16,30.00,10,10,10,26,10,33,0.00,4,,5
2012-1-20,9,6,2,4,0,-6,86,76,66,30.26,30.11,30.02,10,5,1,18,9,24,T,8,Snow,70
2012-1-21,24,10,-4,20,7,-8,92,84,76,30.27,30.12,29.83,10,7,1,24,9,30,T,7,Snow,124
2012-1-22,34,29,23,34,30,19,100,91,81,29.81,29.52,29.39,10,3,0,22,12,30,T,8,Fog-Rain-Snow,127
2012-1-23,33,29,24,32,24,19,96,86,75,30.05,29.66,29.39,10,5,1,26,17,36,T,8,Snow,301
2012-1-24,28,25,21,22,20,19,88,82,75,30.33,30.25,30.06,10,9,6,12,6,16,0.00,6,,47
2012-1-25,39,32,24,30,26,22,92,84,75,30.31,30.16,29.97,10,7,2,15,7,20,0.00,5,,131
2012-1-26,43,33,23,34,29,22,100,83,65,29.93,29.85,29.77,10,6,0,22,10,28,0.00,3,Fog,267
2012-1-27,38,32,25,31,27,19,92,81,69,30.08,29.95,29.88,10,9,1,25,11,31,T,5,Snow,249
2012-1-28,42,32,22,22,19,17,84,61,38,30.18,30.12,30.04,10,10,10,23,13,28,0.00,1,,264
2012-1-29,34,29,23,24,19,17,81,66,51,30.25,30.15,30.00,10,10,9,25,10,30,0.00,4,,297
2012-1-30,61,47,32,35,29,20,70,53,35,29.95,29.78,29.71,10,10,10,22,11,24,0.00,1,,196
2012-1-31,57,45,32,40,36,30,92,70,47,30.03,29.83,29.71,10,10,10,22,12,25,0.00,0,,268